Latest Weather Observations for Edinburgh

IDS60901

Issued at 12:45 pm CST Thursday 31 July 2014 (issued every 10 minutes, with the page automatically refreshed every 10 minutes)

About weather observations | Map of Adelaide area stations | Latest observations for Adelaide area | Other Formats
Station Details ID: 023083 Name: EDINBURGH RAAF Lat: -34.71 Lon: 138.62 Height: 16.54 m
Data from the previous 72 hours. | See also: Recent months at Edinburgh
Date/Time
CST
Tmp

°C
App
Tmp
°C
Dew
Point
°C
Rel
Hum
%
Delta-T

°C
Wind Press
QNH
hPa
Press
MSL
hPa
Rain
since
9 am
mm
Dir
 
Spd
km/h
Gust
km/h
Spd
kts
Gust
kts
31/12:30pm 15.0 6.5 8.5 65 3.3 WNW 43 56 23 30 1004.6 1004.7 0.0
31/12:00pm 15.8 6.6 8.1 60 3.9 NW 46 65 25 35 1004.9 1005.0 0.0
31/11:30am 16.8 7.3 8.2 57 4.4 NW 48 69 26 37 1005.3 1005.4 0.0
31/11:00am 16.8 8.3 8.5 58 4.2 WNW 43 61 23 33 1005.7 - 0.0
31/10:50am 16.5 7.9 8.2 58 4.2 NW 43 61 23 33 1005.8 - 0.0
31/10:30am 16.1 8.4 8.6 61 3.8 NW 39 56 21 30 1006.0 1006.1 0.0
31/10:20am 16.0 8.8 9.0 63 3.6 NW 37 56 20 30 1006.0 - 0.0
31/10:00am 15.4 8.1 8.6 64 3.5 NW 37 48 20 26 1006.4 - 0.0
31/09:58am 15.3 7.6 8.5 64 3.5 NW 39 48 21 26 1006.5 - 0.0
31/09:30am 13.8 9.3 8.6 71 2.6 N 22 32 12 17 1007.0 1007.1 0.0
31/09:00am 12.3 8.6 8.0 75 2.1 N 17 20 9 11 1007.3 1007.4 0.0
31/08:30am 11.3 7.5 7.4 77 1.9 N 17 22 9 12 1007.5 1007.6 0.0
31/08:00am 10.5 6.2 6.8 78 1.7 N 19 24 10 13 1007.6 - 0.0
31/07:30am 10.1 5.5 6.6 79 1.6 N 20 26 11 14 1007.3 1007.4 0.0
31/07:00am 9.0 5.3 6.4 84 1.2 N 15 22 8 12 1007.9 - 0.0
31/06:30am 9.1 5.0 6.2 82 1.3 N 17 20 9 11 1007.8 1007.9 0.0
31/06:00am 9.3 4.9 6.4 82 1.3 N 19 22 10 12 1007.7 1007.8 0.0
31/05:30am 9.4 5.7 6.3 81 1.4 N 15 19 8 10 1008.0 1008.1 0.0
31/05:00am 10.3 5.4 6.8 79 1.6 N 22 28 12 15 1007.7 - 0.0
31/04:30am 9.6 5.6 6.5 81 1.4 N 17 22 9 12 1008.2 1008.3 0.0
31/04:00am 10.0 5.7 6.9 81 1.5 N 19 24 10 13 1008.5 - 0.0
31/03:30am 10.1 5.8 7.0 81 1.5 N 19 26 10 14 1009.3 1009.3 0.0
31/03:00am 10.2 6.7 7.3 82 1.4 NNE 15 20 8 11 1009.7 1009.7 0.0
31/02:30am 9.6 6.0 6.9 83 1.3 N 15 19 8 10 1010.3 1010.3 0.0
31/02:00am 10.3 6.4 7.2 81 1.5 N 17 20 9 11 1010.8 - 0.0
31/01:30am 10.4 6.6 7.6 83 1.3 N 17 22 9 12 1011.2 1011.2 0.0
31/01:00am 10.3 6.6 7.9 85 1.2 N 17 22 9 12 1011.4 - 0.0
31/12:30am 8.8 5.7 7.3 90 0.7 N 13 17 7 9 1011.9 1011.9 0.0
31/12:00am 8.9 6.2 7.2 89 0.8 NE 11 13 6 7 1012.3 1012.3 0.0
 
Date/Time
CST
Tmp

°C
App
Tmp
°C
Dew
Point
°C
Rel
Hum
%
Delta-T

°C
Wind Press
QNH
hPa
Press
MSL
hPa
Rain
since
9 am
mm
Dir
 
Spd
km/h
Gust
km/h
Spd
kts
Gust
kts
30/11:30pm 8.9 6.2 7.2 89 0.8 NNE 11 13 6 7 1012.6 1012.6 0.0
30/11:00pm 9.5 6.5 7.8 89 0.8 NNE 13 15 7 8 1013.1 - 0.0
30/10:30pm 9.4 7.2 7.7 89 0.8 NNE 9 11 5 6 1013.5 1013.5 0.0
30/10:00pm 10.0 7.9 8.3 89 0.8 N 9 11 5 6 1013.9 - 0.0
30/09:30pm 9.7 6.8 8.0 89 0.8 NNE 13 13 7 7 1014.1 1014.1 0.0
30/09:00pm 10.5 8.0 8.4 87 1.0 N 11 13 6 7 1014.4 1014.4 0.0
30/08:30pm 11.5 10.0 9.1 85 1.2 N 7 9 4 5 1014.5 1014.5 0.0
30/08:00pm 12.6 11.3 10.0 84 1.3 NNW 7 9 4 5 1014.6 - 0.0
30/07:30pm 12.5 11.2 9.9 84 1.3 N 7 11 4 6 1015.0 1015.0 0.0
30/07:00pm 13.6 12.2 10.9 84 1.4 N 9 11 5 6 1015.1 - 0.0
30/06:30pm 13.7 11.6 11.0 84 1.4 N 13 15 7 8 1014.9 1014.9 0.0
30/06:00pm 13.2 10.6 10.6 84 1.4 NNW 15 19 8 10 1014.9 1014.9 0.0
30/05:30pm 14.3 11.0 10.9 80 1.8 NNW 19 22 10 12 1014.8 1014.8 0.0
30/05:00pm 15.6 11.9 11.4 76 2.3 NW 22 32 12 17 1015.0 - 0.0
30/04:30pm 15.7 11.3 11.7 77 2.2 NW 26 37 14 20 1015.1 1015.1 0.0
30/04:00pm 15.8 11.0 11.8 77 2.2 WNW 28 39 15 21 1015.3 - 0.0
30/03:30pm 15.5 12.4 12.1 80 1.8 WNW 20 28 11 15 1015.5 1015.5 0.0
30/03:00pm 15.8 11.2 12.2 79 2.0 WNW 28 37 15 20 1015.7 1015.7 0.0
30/02:30pm 16.1 10.9 11.7 75 2.4 WNW 30 37 16 20 1015.8 1015.8 0.0
30/02:00pm 16.5 11.4 11.9 74 2.5 WNW 30 35 16 19 1015.9 - 0.0
30/01:30pm 16.2 11.2 12.2 77 2.2 WNW 30 41 16 22 1016.4 1016.4 0.0
30/01:00pm 16.1 10.9 11.7 75 2.4 WNW 30 41 16 22 1016.7 - 0.0
30/12:30pm 16.3 11.3 12.1 76 2.3 WNW 30 43 16 23 1017.2 1017.2 0.0
30/12:00pm 16.7 12.3 12.8 78 2.2 WNW 28 35 15 19 1017.8 1017.8 0.0
30/11:30am 16.4 11.0 12.2 76 2.3 WNW 32 41 17 22 1018.0 1018.0 0.0
30/11:00am 16.1 11.0 11.9 76 2.3 WNW 30 43 16 23 1018.6 - 0.0
30/10:30am 15.0 10.6 11.8 81 1.7 WNW 26 35 14 19 1018.9 1018.9 0.0
30/10:00am 14.3 10.2 11.6 84 1.4 WNW 24 32 13 17 1018.9 - 0.0
30/09:30am 13.2 9.4 11.3 88 1.0 WNW 22 32 12 17 1019.1 1019.1 0.0
30/09:17am 13.0 8.8 11.1 88 1.0 NW 24 32 13 17 1019.2 - 0.0
30/09:00am 12.9 9.1 11.0 88 1.0 NW 22 32 12 17 1019.0 1019.0 0.2
30/08:46am 12.8 9.0 11.0 89 0.9 NW 22 28 12 15 1018.9 - 0.2
30/08:30am 12.6 9.1 11.0 90 0.8 NW 20 26 11 14 1018.7 1018.7 0.2
30/08:00am 12.5 8.6 10.9 90 0.8 NW 22 30 12 16 1018.8 - 0.2
30/07:45am 12.6 9.1 11.0 90 0.8 NW 20 26 11 14 1018.8 - 0.2
30/07:30am 12.7 8.9 11.1 90 0.8 NW 22 30 12 16 1018.8 1018.8 0.2
30/07:27am 12.7 9.3 11.1 90 0.8 NW 20 30 11 16 1018.8 - 0.2
30/07:00am 12.5 8.6 10.9 90 0.8 NW 22 30 12 16 1018.6 - 0.2
30/06:41am 12.5 7.8 10.7 89 0.9 NW 26 33 14 18 1018.4 - 0.2
30/06:30am 12.6 9.1 10.8 89 0.9 NW 20 30 11 16 1018.3 1018.3 0.2
30/06:00am 12.7 8.8 10.8 88 1.0 NW 22 30 12 16 1018.2 1018.2 0.2
30/05:30am 12.7 9.2 10.9 89 0.9 NNW 20 26 11 14 1018.0 1018.0 0.2
30/05:00am 12.7 9.2 10.8 88 1.0 NW 20 26 11 14 1018.1 - 0.2
30/04:30am 12.7 9.2 10.9 89 0.9 NNW 20 28 11 15 1018.0 1018.0 0.2
30/04:04am 12.7 9.3 11.1 90 0.8 NW 20 24 11 13 1018.2 - 0.2
30/04:00am 12.7 9.3 11.1 90 0.8 NNW 20 24 11 13 1018.2 - 0.2
30/03:30am 12.8 9.4 11.4 91 0.7 NNW 20 24 11 13 1018.3 1018.3 0.2
30/03:00am 12.9 9.8 11.5 91 0.7 NW 19 22 10 12 1018.5 1018.5 0.2
30/02:54am 12.9 10.1 11.5 91 0.7 NW 17 26 9 14 1018.5 - 0.2
30/02:32am 13.0 9.6 11.4 90 0.8 NW 20 28 11 15 1018.5 - 0.2
30/02:30am 13.0 9.8 11.4 90 0.8 NW 19 26 10 14 1018.5 1018.5 0.2
30/02:00am 12.9 10.1 11.3 90 0.8 NNW 17 22 9 12 1018.8 - 0.2
30/01:30am 13.0 9.6 11.4 90 0.8 NW 20 24 11 13 1019.1 1019.1 0.2
30/01:00am 13.2 9.8 11.4 89 1.0 NW 20 28 11 15 1019.0 - 0.2
30/12:30am 13.4 9.7 11.5 88 1.0 WNW 22 30 12 16 1019.0 1019.0 0.2
30/12:00am 13.6 10.0 11.8 89 1.0 WNW 22 28 12 15 1019.2 1019.2 0.2
 
Date/Time
CST
Tmp

°C
App
Tmp
°C
Dew
Point
°C
Rel
Hum
%
Delta-T

°C
Wind Press
QNH
hPa
Press
MSL
hPa
Rain
since
9 am
mm
Dir
 
Spd
km/h
Gust
km/h
Spd
kts
Gust
kts
29/11:30pm 13.6 9.2 11.8 89 1.0 WNW 26 32 14 17 1019.2 1019.2 0.2
29/11:00pm 13.5 8.8 11.9 90 0.9 WNW 28 35 15 19 1019.2 - 0.2
29/10:30pm 13.4 9.1 12.0 91 0.7 WNW 26 33 14 18 1019.1 1019.1 0.2
29/10:25pm 13.4 8.3 12.0 91 0.8 WNW 30 39 16 21 1019.1 - 0.2
29/10:06pm 13.8 9.4 11.8 88 1.1 W 26 39 14 21 1019.3 - 0.0
29/10:00pm 13.9 10.3 11.8 87 1.1 WNW 22 28 12 15 1019.4 - 0.0
29/09:30pm 13.4 10.8 12.0 91 0.7 WNW 17 24 9 13 1019.1 1019.1 0.0
29/09:00pm 13.3 10.1 12.0 92 0.7 W 20 28 11 15 1018.9 1018.9 0.0
29/08:50pm 13.3 9.0 12.0 92 0.7 W 26 35 14 19 1018.8 - 0.0
29/08:30pm 13.3 7.8 11.9 91 0.7 W 32 41 17 22 1018.9 1018.9 0.0
29/08:13pm 13.4 6.6 11.8 90 0.9 W 39 52 21 28 1018.7 - 0.0
29/08:00pm 14.1 6.8 11.4 84 1.4 W 41 52 22 28 1018.6 - 0.0
29/07:30pm 14.5 9.6 11.3 81 1.7 W 28 39 15 21 1018.3 1018.3 0.0
29/07:00pm 14.4 9.1 11.4 82 1.6 W 30 39 16 21 1018.2 - 0.0
29/06:30pm 15.2 11.0 11.2 77 2.1 WNW 24 33 13 18 1017.7 1017.7 0.0
29/06:00pm 15.2 11.4 11.2 77 2.1 WNW 22 30 12 16 1017.4 1017.4 0.0
29/05:30pm 15.4 10.9 11.4 77 2.1 WNW 26 35 14 19 1017.3 1017.3 0.0
29/05:00pm 15.4 10.6 11.6 78 2.0 WNW 28 35 15 19 1017.1 - 0.0
29/04:30pm 15.6 10.9 12.0 79 2.0 WNW 28 37 15 20 1016.8 1016.8 0.0
29/04:00pm 15.6 10.9 12.0 79 2.0 WNW 28 37 15 20 1016.7 - 0.0
29/03:30pm 15.5 10.8 12.1 80 1.8 WNW 28 41 15 22 1016.5 1016.5 0.0
29/03:00pm 15.6 10.1 11.8 78 2.1 WNW 32 43 17 23 1016.5 1016.5 0.0
29/02:30pm 15.8 9.3 11.8 77 2.2 WNW 37 48 20 26 1016.3 1016.3 0.0
29/02:00pm 16.6 10.2 11.9 74 2.6 WNW 37 46 20 25 1016.2 - 0.0
29/01:30pm 16.0 8.7 11.6 75 2.4 WNW 41 54 22 29 1016.2 - 0.0
29/01:00pm 16.7 10.5 12.5 76 2.3 WNW 37 52 20 28 1016.3 - 0.0
29/12:30pm 15.5 8.6 11.5 77 2.2 WNW 39 54 21 29 1016.6 - 0.0
29/12:00pm 15.2 8.7 11.6 79 1.9 WNW 37 48 20 26 1017.2 1017.1 0.0
29/11:30am 15.4 8.8 11.4 77 2.1 WNW 37 46 20 25 1017.5 - 0.0
29/11:00am 15.9 10.2 11.9 77 2.2 NW 33 41 18 22 1017.3 - 0.0
29/10:30am 14.8 9.2 11.6 81 1.7 NW 32 39 17 21 1017.3 - 0.0
29/10:00am 13.4 9.1 10.6 83 1.5 NW 24 35 13 19 1017.6 - 0.0
29/09:30am 12.8 8.8 10.3 85 1.3 NW 22 30 12 16 1017.5 - 0.0
29/09:00am 12.2 8.0 9.8 85 1.2 NW 22 28 12 15 1017.2 1017.1 0.0
29/08:30am 11.3 6.9 9.0 86 1.1 NW 22 32 12 17 1016.8 - 0.0
29/08:00am 11.1 5.4 8.5 84 1.3 NW 28 37 15 20 1016.5 - 0.0
29/07:30am 10.4 5.8 8.0 85 1.2 NW 22 30 12 16 1016.4 - 0.0
29/07:00am 10.2 5.1 7.6 84 1.2 NW 24 30 13 16 1016.3 - 0.0
29/06:30am 10.2 4.3 7.6 84 1.2 NW 28 35 15 19 1015.9 - 0.0
29/06:00am 10.0 4.0 7.1 82 1.4 NW 28 35 15 19 1015.8 1015.7 0.0
29/05:30am 9.6 3.9 6.9 83 1.3 NW 26 33 14 18 1016.2 - 0.0
29/05:00am 8.4 3.3 5.9 84 1.1 NW 22 28 12 15 1016.0 - 0.0
29/04:30am 8.0 4.2 5.6 85 1.1 N 15 19 8 10 1016.3 - 0.0
29/04:00am 7.3 4.0 4.8 84 1.1 NE 11 11 6 6 1016.6 - 0.0
29/03:30am 7.6 4.9 5.6 87 0.9 NNE 9 11 5 6 1016.6 - 0.0
29/03:00am 7.8 4.7 5.6 86 1.0 NNE 11 17 6 9 1016.3 1016.2 0.0
29/02:30am 8.3 4.9 6.1 86 1.0 N 13 17 7 9 1016.7 - 0.0
29/02:00am 8.2 4.8 6.0 86 1.0 N 13 17 7 9 1016.7 - 0.0
29/01:30am 8.3 5.0 6.4 88 0.9 N 13 15 7 8 1016.8 - 0.0
29/01:00am 7.5 4.8 5.8 89 0.8 NNE 9 9 5 5 1017.0 - 0.0
29/12:30am 7.5 4.8 5.6 88 0.9 N 9 11 5 6 1017.2 - 0.0
29/12:00am 8.0 5.4 6.0 87 0.9 N 9 13 5 7 1017.2 1017.1 0.0
 
Date/Time
CST
Tmp

°C
App
Tmp
°C
Dew
Point
°C
Rel
Hum
%
Delta-T

°C
Wind Press
QNH
hPa
Press
MSL
hPa
Rain
since
9 am
mm
Dir
 
Spd
km/h
Gust
km/h
Spd
kts
Gust
kts
28/11:30pm 8.5 5.2 6.5 87 0.9 N 13 15 7 8 1017.3 - 0.0
28/11:00pm 8.4 5.9 6.4 87 0.9 N 9 11 5 6 1017.3 - 0.0
28/10:30pm 8.7 5.5 6.8 88 0.9 NNW 13 15 7 8 1017.5 - 0.0
28/10:00pm 9.1 6.0 7.4 89 0.8 NNW 13 17 7 9 1017.4 - 0.0
28/09:30pm 8.8 6.0 7.1 89 0.8 NW 11 13 6 7 1017.5 - 0.0
28/09:00pm 9.2 6.6 7.6 90 0.8 NW 11 13 6 7 1017.5 1017.4 0.0
28/08:30pm 9.6 7.1 8.2 91 0.7 NW 11 15 6 8 1017.3 - 0.0
28/08:00pm 10.2 7.1 8.8 91 0.7 NW 15 17 8 9 1017.3 - 0.0
28/07:30pm 10.4 7.7 8.8 90 0.8 NNW 13 15 7 8 1017.1 - 0.0
28/07:00pm 10.6 8.3 8.9 89 0.8 NNW 11 15 6 8 1016.9 - 0.0
28/06:30pm 11.6 9.1 9.7 88 1.0 NNW 13 17 7 9 1016.6 - 0.0
28/06:00pm 11.8 9.2 9.5 86 1.2 NW 13 17 7 9 1016.6 1016.5 0.0
28/05:30pm 13.1 10.0 10.3 83 1.5 NW 17 24 9 13 1016.6 - 0.0
28/05:00pm 14.6 10.8 11.0 79 1.9 NW 22 30 12 16 1016.6 - 0.0
28/04:30pm 14.9 11.5 11.1 78 2.0 NW 20 28 11 15 1016.2 - 0.0
28/04:00pm 15.4 11.6 11.0 75 2.3 NNW 22 26 12 14 1016.2 - 0.0
28/03:30pm 15.8 12.0 11.0 73 2.6 NNW 22 28 12 15 1016.6 - 0.0
28/03:00pm 16.1 12.4 11.5 74 2.5 NNW 22 28 12 15 1016.6 1016.5 0.0
28/02:30pm 15.2 11.8 10.6 74 2.4 NNW 19 26 10 14 1016.8 - 0.0
28/02:00pm 15.1 11.7 10.7 75 2.3 NNW 19 22 10 12 1016.9 - 0.0
28/01:30pm 14.9 12.0 11.1 78 2.0 NNW 17 19 9 10 1017.1 - 0.0
28/01:00pm 14.6 11.6 10.6 77 2.1 NNW 17 22 9 12 1017.5 - 0.0

Latest Capital City Observations: Canberra | Sydney | Melbourne | Brisbane | Adelaide | Perth | Hobart | Darwin

Other Formats:

Comma delimited format used in spreadsheet applications
http://www.bom.gov.au/fwo/IDS60901/IDS60901.95676.axf

JavaScript Object Notation format (JSON) in row-major order
http://www.bom.gov.au/fwo/IDS60901/IDS60901.95676.json